createdAt,value
2022-12-04T18:28:22.997Z,6.18
2022-12-04T18:30:50.528Z,6.90
2022-12-04T18:33:23.646Z,4.50
2022-12-04T18:35:57.592Z,8.82
2022-12-04T18:38:28.278Z,7.18
2022-12-04T18:40:58.642Z,4.32
2022-12-04T18:43:40.961Z,4.95
2022-12-04T18:46:19.425Z,4.50
2022-12-04T18:49:01.815Z,7.22
2022-12-04T18:51:42.905Z,6.97
2022-12-04T18:54:25.040Z,4.80
2022-12-04T18:57:07.475Z,5.68
2022-12-04T18:59:36.475Z,6.03
2022-12-04T19:02:03.773Z,8.75
2022-12-04T19:04:32.700Z,6.30
2022-12-04T19:07:00.038Z,5.75
2022-12-04T19:10:02.628Z,5.25
2022-12-04T19:12:18.738Z,7.10
2022-12-04T19:14:45.930Z,5.65
2022-12-04T19:17:15.205Z,6.38
2022-12-04T19:19:42.358Z,5.28
2022-12-04T19:22:09.665Z,4.85
2022-12-04T19:24:36.820Z,4.30
2022-12-04T19:27:10.992Z,5.13
2022-12-04T19:29:42.803Z,5.45
2022-12-04T19:32:11.103Z,5.53
2022-12-04T19:34:38.367Z,6.45
2022-12-04T19:37:06.062Z,6.82
2022-12-04T19:39:33.579Z,5.82
2022-12-04T19:42:00.779Z,6.20
2022-12-04T19:47:14.999Z,7.20
2022-12-04T19:49:42.251Z,9.73
2022-12-04T19:52:09.711Z,7.63
2022-12-04T19:57:04.680Z,4.07
2022-12-04T19:59:37.033Z,5.75
2022-12-04T20:02:06.508Z,7.28
2022-12-04T20:07:00.639Z,7.15
2022-12-04T20:09:27.743Z,10.48
2022-12-04T20:11:54.999Z,6.32
2022-12-04T20:14:22.198Z,7.53
2022-12-04T20:16:49.343Z,7.22
2022-12-04T20:19:18.338Z,5.38
2022-12-04T20:21:46.541Z,7.68
2022-12-04T20:24:17.586Z,5.47
2022-12-04T20:26:46.061Z,6.20
2022-12-04T20:29:15.894Z,7.28
2022-12-04T20:31:45.013Z,6.18
2022-12-04T20:34:15.129Z,5.25
2022-12-04T20:36:44.632Z,4.13
2022-12-04T20:39:13.463Z,5.82
2022-12-04T20:41:41.392Z,6.53
2022-12-04T20:44:14.940Z,7.40
2022-12-04T20:46:42.925Z,8.10
2022-12-04T20:49:20.798Z,9.10
2022-12-04T20:51:50.665Z,6.78
2022-12-04T20:54:23.114Z,4.45
2022-12-04T20:56:53.512Z,6.88
2022-12-04T20:59:28.016Z,7.07
2022-12-04T21:01:55.681Z,7.20
2022-12-04T21:04:23.886Z,7.07
2022-12-04T21:06:51.026Z,4.35
2022-12-04T21:09:28.193Z,4.97
2022-12-04T21:11:57.100Z,5.75
2022-12-04T21:14:50.264Z,4.75
2022-12-04T21:17:19.235Z,4.88
2022-12-04T21:19:48.654Z,6.05
2022-12-04T21:22:17.183Z,6.53
2022-12-04T21:24:44.338Z,4.38
2022-12-04T21:27:15.857Z,5.85
2022-12-04T21:29:48.776Z,3.25
2022-12-04T21:32:17.080Z,4.72
2022-12-04T21:34:44.204Z,4.97
2022-12-04T21:37:11.350Z,4.22
2022-12-04T21:39:39.099Z,4.40
2022-12-04T21:42:25.156Z,3.55
2022-12-04T21:44:52.289Z,5.65
2022-12-04T21:47:19.469Z,6.13
2022-12-04T21:49:47.743Z,5.90
2022-12-04T21:52:19.091Z,4.90
2022-12-04T21:54:53.650Z,4.07
2022-12-04T21:57:21.655Z,3.95
2022-12-04T21:59:51.209Z,3.85
2022-12-04T22:02:19.215Z,4.68
2022-12-04T22:04:49.461Z,6.53
2022-12-04T22:07:17.097Z,8.02
2022-12-04T22:09:44.835Z,3.22
2022-12-04T22:12:41.385Z,6.05
2022-12-04T22:14:59.192Z,5.25
2022-12-04T22:17:29.386Z,4.28
2022-12-04T22:19:57.862Z,1.92
2022-12-04T22:22:25.173Z,1.88
2022-12-04T22:24:55.077Z,3.85
2022-12-04T22:27:22.271Z,1.85
2022-12-04T22:29:50.972Z,2.75
2022-12-04T22:32:19.927Z,3.28
2022-12-04T22:34:50.112Z,1.38
2022-12-04T22:37:17.405Z,1.55
2022-12-04T22:39:44.499Z,2.20
2022-12-04T22:42:11.625Z,1.30
2022-12-04T22:44:38.668Z,2.22
2022-12-04T22:47:05.849Z,1.23
2022-12-04T22:49:33.030Z,1.17
2022-12-04T22:52:00.156Z,2.83
2022-12-04T22:54:27.244Z,1.23
2022-12-04T22:56:54.394Z,1.58
2022-12-04T22:59:21.508Z,1.05
2022-12-04T23:01:48.678Z,1.58
2022-12-04T23:04:15.791Z,3.53
2022-12-04T23:06:42.905Z,2.88
2022-12-04T23:09:15.904Z,0.82
2022-12-04T23:11:44.681Z,0.82
2022-12-04T23:14:14.965Z,2.05
2022-12-04T23:16:42.900Z,2.13
2022-12-04T23:19:13.668Z,2.00
2022-12-04T23:21:42.486Z,2.38
2022-12-04T23:24:10.851Z,1.45
2022-12-04T23:26:42.082Z,3.25
2022-12-04T23:29:29.568Z,1.45
2022-12-04T23:31:56.591Z,3.17
2022-12-04T23:34:23.775Z,2.28
2022-12-04T23:36:50.876Z,1.48
2022-12-04T23:39:17.948Z,1.73
2022-12-04T23:41:45.109Z,2.07
2022-12-04T23:44:12.246Z,1.77
2022-12-04T23:46:39.420Z,2.15
2022-12-04T23:49:06.524Z,2.05
2022-12-04T23:51:33.650Z,2.00
2022-12-04T23:54:00.774Z,2.70
2022-12-04T23:56:28.060Z,2.70
2022-12-04T23:58:57.152Z,2.28
